Time;durP1;ratioP1;P1;durP2;ratioP2;P2;SDS_P1;SDS_P2;PMS_P1;PMS_P2;Temp;Humidity;BMP_temperature;BMP_pressure;BME280_temperature;BME280_humidity;BME280_pressure;Samples;Min_cycle;Max_cycle;Signal;HPM_P1;HPM_P2
2023/04/03 00:00:55;;;;;;;11.73;6.53;;;;;;;-1.14;100.00;102860.31;5101717;28;20211;-90
2023/04/03 00:03:21;;;;;;;8.35;6.00;;;;;;;-1.25;100.00;102850.69;5117832;28;20030;-88
2023/04/03 00:05:46;;;;;;;9.80;6.07;;;;;;;-1.21;100.00;102852.09;5118035;28;20023;-90
2023/04/03 00:08:12;;;;;;;10.23;6.40;;;;;;;-1.17;100.00;102855.28;5112988;28;20031;-90
2023/04/03 00:10:37;;;;;;;11.80;6.22;;;;;;;-1.22;100.00;102859.16;5098342;28;20024;-89
2023/04/03 00:13:04;;;;;;;11.53;6.37;;;;;;;-1.18;100.00;102862.38;5079115;28;20903;-90
2023/04/03 00:15:30;;;;;;;11.48;6.00;;;;;;;-1.22;100.00;102858.31;5078566;28;20031;-89
2023/04/03 00:17:56;;;;;;;9.27;6.10;;;;;;;-1.27;100.00;102865.75;5094332;28;20024;-90
2023/04/03 00:20:22;;;;;;;12.10;6.50;;;;;;;-1.30;100.00;102868.69;5094680;28;20290;-90
2023/04/03 00:22:50;;;;;;;10.77;6.13;;;;;;;-1.37;100.00;102848.13;5096069;28;20031;-90
2023/04/03 00:25:15;;;;;;;11.80;6.18;;;;;;;-1.38;100.00;102845.66;5077070;28;20111;-89
2023/04/03 00:27:41;;;;;;;9.63;5.60;;;;;;;-1.29;100.00;102858.00;5095191;28;20109;-90
2023/04/03 00:30:08;;;;;;;10.50;5.93;;;;;;;-1.35;100.00;102869.03;5076110;28;20093;-90
2023/04/03 00:32:34;;;;;;;9.77;6.00;;;;;;;-1.47;100.00;102859.53;5093950;28;20425;-90
2023/04/03 00:34:59;;;;;;;12.20;6.17;;;;;;;-1.45;100.00;102868.97;5094861;28;20282;-90
2023/04/03 00:37:25;;;;;;;8.23;5.50;;;;;;;-1.55;100.00;102866.25;5093822;28;20012;-89
2023/04/03 00:39:50;;;;;;;10.80;5.80;;;;;;;-1.55;100.00;102866.25;5093647;28;20060;-90
2023/04/03 00:42:16;;;;;;;8.73;6.13;;;;;;;-1.69;100.00;102859.53;5094220;28;20028;-90
2023/04/03 00:44:41;;;;;;;9.70;6.27;;;;;;;-1.70;100.00;102871.00;5082317;28;20522;-90
2023/04/03 00:47:10;;;;;;;9.67;5.77;;;;;;;-1.77;100.00;102872.47;5055983;28;20040;-90
2023/04/03 00:49:37;;;;;;;10.98;6.10;;;;;;;-1.82;100.00;102869.34;5089467;28;20486;-89
2023/04/03 00:52:04;;;;;;;9.70;6.00;;;;;;;-1.90;100.00;102866.53;5094732;28;20102;-89
2023/04/03 00:54:29;;;;;;;8.93;5.90;;;;;;;-1.87;100.00;102875.00;5095810;28;20069;-90
2023/04/03 00:56:57;;;;;;;15.13;6.57;;;;;;;-1.85;100.00;102872.25;5095341;28;20130;-89
2023/04/03 00:59:27;;;;;;;11.20;6.38;;;;;;;-1.82;100.00;102874.63;5097023;28;20032;-90
2023/04/03 01:01:55;;;;;;;14.50;5.95;;;;;;;-1.84;100.00;102871.31;5074646;28;20032;-90
2023/04/03 01:04:34;;;;;;;10.60;6.32;;;;;;;-1.80;100.00;102885.03;5073917;28;20028;-90
2023/04/03 01:07:10;;;;;;;11.60;6.25;;;;;;;-1.84;100.00;102881.81;5073769;28;20498;-90
2023/04/03 01:09:37;;;;;;;8.23;5.73;;;;;;;-1.90;100.00;102879.69;5072488;28;20576;-90
2023/04/03 01:12:24;;;;;;;9.80;5.63;;;;;;;-1.95;100.00;102881.84;5074061;28;20031;-90
2023/04/03 01:14:55;;;;;;;10.60;5.68;;;;;;;-1.99;100.00;102883.88;5073953;28;20036;-90
2023/04/03 01:17:42;;;;;;;9.77;5.10;;;;;;;-2.07;100.00;102884.50;5074770;28;20054;-91
2023/04/03 01:20:26;;;;;;;7.07;5.13;;;;;;;-2.11;100.00;102887.50;5072738;28;20063;-89
2023/04/03 01:22:56;;;;;;;9.80;5.32;;;;;;;-2.17;100.00;102884.41;5073083;28;20051;-90
2023/04/03 01:25:21;;;;;;;10.13;5.47;;;;;;;-2.20;100.00;102887.28;5086379;28;20032;-89
2023/04/03 01:27:47;;;;;;;9.40;5.30;;;;;;;-2.28;100.00;102885.25;5095539;28;20325;-90
2023/04/03 01:30:16;;;;;;;9.70;5.33;;;;;;;-2.31;100.00;102882.03;5073646;28;20032;-89
2023/04/03 01:32:42;;;;;;;11.45;5.63;;;;;;;-2.30;100.00;102888.97;5075902;28;20112;-89
2023/04/03 01:35:08;;;;;;;10.93;5.90;;;;;;;-2.36;100.00;102889.44;5085844;28;20039;-89
2023/04/03 01:37:33;;;;;;;9.07;5.95;;;;;;;-2.29;100.00;102896.72;5094017;28;20047;-90
2023/04/03 01:39:59;;;;;;;9.10;6.10;;;;;;;-2.20;100.00;102892.53;5092294;28;20051;-89
2023/04/03 01:42:24;;;;;;;8.98;5.88;;;;;;;-2.21;100.00;102896.09;5074641;28;20044;-89
2023/04/03 01:44:49;;;;;;;7.40;5.87;;;;;;;-2.26;100.00;102887.75;5089666;28;20046;-91
2023/04/03 01:47:15;;;;;;;10.30;6.00;;;;;;;-2.36;100.00;102884.19;5073137;28;20043;-89
2023/04/03 01:49:40;;;;;;;12.23;5.63;;;;;;;-2.39;100.00;102887.91;5071946;28;20064;-90
2023/04/03 01:52:06;;;;;;;10.50;5.40;;;;;;;-2.38;100.00;102893.97;5073083;28;20111;-90
2023/04/03 01:54:31;;;;;;;9.23;5.53;;;;;;;-2.46;100.00;102886.69;5056908;28;20048;-90
2023/04/03 01:56:56;;;;;;;14.47;6.27;;;;;;;-2.41;100.00;102895.06;5078706;28;20161;-89
2023/04/03 01:59:21;;;;;;;10.93;6.20;;;;;;;-2.41;100.00;102883.72;5072292;28;20024;-89
2023/04/03 02:01:47;;;;;;;10.13;5.50;;;;;;;-2.45;100.00;102878.69;5073034;28;20025;-89
2023/04/03 02:04:12;;;;;;;11.63;5.47;;;;;;;-2.41;100.00;102894.22;5073122;28;20048;-89
2023/04/03 02:06:38;;;;;;;8.48;5.55;;;;;;;-2.42;100.00;102888.13;5071617;28;20029;-90
2023/04/03 02:09:04;;;;;;;11.80;5.67;;;;;;;-2.45;100.00;102889.19;5053984;28;20024;-90
2023/04/03 02:11:29;;;;;;;10.90;5.63;;;;;;;-2.44;100.00;102887.41;5085277;28;20031;-89
2023/04/03 02:13:54;;;;;;;11.50;6.20;;;;;;;-2.46;100.00;102886.69;5092840;28;20524;-90
2023/04/03 02:16:20;;;;;;;9.40;5.60;;;;;;;-2.46;100.00;102887.53;5080040;28;20040;-89
2023/04/03 02:18:45;;;;;;;12.20;6.05;;;;;;;-2.46;100.00;102884.06;5072103;28;20080;-90
2023/04/03 02:21:10;;;;;;;9.37;5.57;;;;;;;-2.36;100.00;102892.06;5072367;28;20051;-90
2023/04/03 02:23:36;;;;;;;9.53;5.70;;;;;;;-2.36;100.00;102892.06;5072366;28;20032;-90
2023/04/03 02:26:13;;;;;;;9.02;5.72;;;;;;;-2.39;100.00;102887.91;5072950;28;20036;-89
2023/04/03 02:28:40;;;;;;;18.10;5.43;;;;;;;-2.44;100.00;102884.78;5071517;28;20052;-90
2023/04/03 02:31:06;;;;;;;10.48;5.03;;;;;;;-2.42;100.00;102893.38;5072088;28;20025;-89
2023/04/03 02:33:32;;;;;;;8.52;5.65;;;;;;;-2.41;100.00;102894.22;5087605;28;20119;-90
2023/04/03 02:36:00;;;;;;;10.37;5.67;;;;;;;-2.34;100.00;102898.03;5092470;28;20110;-89
2023/04/03 02:38:26;;;;;;;6.88;4.68;;;;;;;-2.30;100.00;102913.44;5095890;28;20069;-90
2023/04/03 02:40:51;;;;;;;8.70;5.07;;;;;;;-2.24;100.00;102901.59;5107254;28;20016;-90
2023/04/03 02:43:18;;;;;;;7.53;4.50;;;;;;;-2.23;100.00;102898.00;5116601;28;20020;-89
2023/04/03 02:45:43;;;;;;;7.97;5.38;;;;;;;-2.22;100.00;102914.63;5117362;28;20038;-89
2023/04/03 02:48:09;;;;;;;7.40;4.75;;;;;;;-2.20;100.00;102917.97;5113988;28;20020;-89
2023/04/03 02:50:34;;;;;;;9.63;5.60;;;;;;;-2.25;100.00;102901.72;5114744;28;20036;-89
2023/04/03 02:53:00;;;;;;;10.40;5.30;;;;;;;-2.26;100.00;102906.13;5116076;28;20028;-90
2023/04/03 02:55:25;;;;;;;6.90;5.33;;;;;;;-2.20;100.00;102910.09;5114620;28;20031;-90
2023/04/03 02:57:52;;;;;;;6.27;4.53;;;;;;;-2.21;100.00;102905.78;5096813;28;20269;-90
2023/04/03 03:00:18;;;;;;;8.98;4.78;;;;;;;-2.16;100.00;102925.47;5097923;28;20020;-89
2023/04/03 03:02:43;;;;;;;10.85;4.45;;;;;;;-2.19;100.00;102915.22;5108721;28;20020;-90
2023/04/03 03:05:09;;;;;;;10.37;4.47;;;;;;;-2.19;100.00;102912.59;5093786;28;20046;-90
2023/04/03 03:07:34;;;;;;;8.47;4.67;;;;;;;-2.23;100.00;102916.41;5055026;28;20056;-89
2023/04/03 03:10:00;;;;;;;7.77;4.50;;;;;;;-2.22;100.00;102918.06;5085949;28;20092;-90
2023/04/03 03:12:25;;;;;;;6.93;4.05;;;;;;;-2.20;100.00;102918.78;5092669;28;20044;-89
2023/04/03 03:14:51;;;;;;;7.60;4.70;;;;;;;-2.21;100.00;102908.41;5093836;28;20028;-89
2023/04/03 03:17:17;;;;;;;7.07;4.73;;;;;;;-2.15;100.00;102908.75;5092644;28;20058;-89
2023/04/03 03:19:43;;;;;;;8.15;4.13;;;;;;;-2.08;100.00;102906.47;5095904;28;20031;-89
2023/04/03 03:22:09;;;;;;;6.55;4.38;;;;;;;-2.03;100.00;102908.72;5093024;28;20076;-89
2023/04/03 03:24:35;;;;;;;8.20;4.43;;;;;;;-2.11;100.00;102909.34;5096258;28;20468;-90
2023/04/03 03:27:00;;;;;;;5.37;3.63;;;;;;;-2.21;100.00;102905.78;5096023;28;20032;-90
2023/04/03 03:29:25;;;;;;;7.20;3.83;;;;;;;-2.30;100.00;102907.34;5095203;28;20031;-89
2023/04/03 03:31:51;;;;;;;7.47;3.60;;;;;;;-2.25;100.00;102912.22;5096180;28;20059;-89
2023/04/03 03:34:16;;;;;;;6.10;3.63;;;;;;;-2.34;100.00;102898.84;5076168;28;20061;-89
2023/04/03 03:36:41;;;;;;;6.43;3.57;;;;;;;-2.30;100.00;102917.84;5096485;28;20032;-90
2023/04/03 03:39:07;;;;;;;7.37;4.37;;;;;;;-2.23;100.00;102926.91;5095043;28;20114;-89
2023/04/03 03:41:32;;;;;;;7.13;3.90;;;;;;;-2.22;100.00;102919.88;5101289;28;20036;-89
2023/04/03 03:43:57;;;;;;;4.67;3.50;;;;;;;-2.23;100.00;102912.94;5101904;28;20013;-89
2023/04/03 03:46:23;;;;;;;8.43;3.63;;;;;;;-2.24;100.00;102906.84;5101079;28;20494;-90
2023/04/03 03:48:48;;;;;;;7.30;3.50;;;;;;;-2.19;100.00;102932.78;5100777;28;20111;-89
2023/04/03 03:51:14;;;;;;;6.70;3.37;;;;;;;-2.24;100.00;102937.53;5100945;28;20024;-89
2023/04/03 03:53:39;;;;;;;6.40;3.60;;;;;;;-2.22;100.00;102946.16;5097826;28;20054;-89
2023/04/03 03:56:05;;;;;;;6.73;3.07;;;;;;;-2.31;100.00;102934.56;5104496;28;20040;-88
2023/04/03 03:58:31;;;;;;;6.78;3.05;;;;;;;-2.32;100.00;102941.59;5105175;28;20043;-88
2023/04/03 04:00:56;;;;;;;8.20;3.47;;;;;;;-2.37;100.00;102937.66;5108534;28;20035;-88
2023/04/03 04:03:21;;;;;;;7.72;3.08;;;;;;;-2.46;100.00;102939.22;5107544;28;20080;-88
2023/04/03 04:05:47;;;;;;;5.27;3.30;;;;;;;-2.53;100.00;102938.88;5108386;28;20028;-89
2023/04/03 04:08:14;;;;;;;8.07;3.37;;;;;;;-2.66;100.00;102925.84;5097682;28;20028;-90
2023/04/03 04:10:39;;;;;;;12.02;3.40;;;;;;;-2.61;100.00;102947.31;5076494;28;20567;-89
2023/04/03 04:13:04;;;;;;;7.47;3.20;;;;;;;-2.65;100.00;102939.81;5085769;28;20090;-89
2023/04/03 04:15:30;;;;;;;4.73;2.80;;;;;;;-2.68;100.00;102943.50;5074925;28;20031;-90
2023/04/03 04:17:56;;;;;;;4.00;2.42;;;;;;;-2.70;100.00;102952.44;5075610;28;20025;-89
2023/04/03 04:20:22;;;;;;;5.25;2.80;;;;;;;-2.76;100.00;102951.13;5074861;28;20562;-90
2023/04/03 04:22:47;;;;;;;8.13;3.67;;;;;;;-2.81;100.00;102948.00;5088222;28;20058;-89
2023/04/03 04:25:12;;;;;;;7.20;3.03;;;;;;;-2.79;100.00;102951.34;5082330;28;20120;-89
2023/04/03 04:27:38;;;;;;;6.00;2.97;;;;;;;-2.80;100.00;102947.88;5080988;28;20024;-89
2023/04/03 04:30:04;;;;;;;4.65;2.70;;;;;;;-2.91;100.00;102935.56;5099264;28;20038;-89
2023/04/03 04:32:29;;;;;;;11.55;3.30;;;;;;;-2.83;100.00;102949.91;5100157;28;20012;-89
2023/04/03 04:34:55;;;;;;;6.40;2.93;;;;;;;-2.76;100.00;102944.06;5094911;28;20426;-89
2023/04/03 04:37:20;;;;;;;6.30;2.93;;;;;;;-2.74;100.00;102944.81;5076725;28;20016;-89
2023/04/03 04:39:45;;;;;;;3.37;2.53;;;;;;;-2.75;100.00;102934.44;5094860;28;20103;-89
2023/04/03 04:42:12;;;;;;;6.67;3.03;;;;;;;-2.76;100.00;102944.06;5092933;28;20024;-89
2023/04/03 04:44:38;;;;;;;8.75;3.05;;;;;;;-2.74;100.00;102950.06;5094288;28;20016;-90
2023/04/03 04:47:04;;;;;;;5.25;2.95;;;;;;;-2.80;100.00;102939.19;5094621;28;20035;-89
2023/04/03 04:49:29;;;;;;;5.87;2.57;;;;;;;-2.74;100.00;102959.72;5094363;28;20032;-89
2023/04/03 04:51:54;;;;;;;6.07;3.17;;;;;;;-2.66;100.00;102961.75;5094401;28;20502;-89
2023/04/03 04:54:20;;;;;;;7.00;3.30;;;;;;;-2.62;100.00;102963.19;5100078;28;20035;-89
2023/04/03 04:56:45;;;;;;;5.80;2.83;;;;;;;-2.59;100.00;102955.94;5076255;28;20044;-89
2023/04/03 04:59:10;;;;;;;6.93;3.13;;;;;;;-2.60;100.00;102954.25;5092978;28;20020;-89
2023/04/03 05:01:36;;;;;;;8.40;2.70;;;;;;;-2.56;100.00;102960.09;5094133;28;20024;-89
2023/04/03 05:04:01;;;;;;;4.50;3.23;;;;;;;-2.48;100.00;102968.22;5093756;28;20044;-90
2023/04/03 05:06:26;;;;;;;5.60;3.50;;;;;;;-2.35;100.00;102968.09;5093470;28;20503;-89
2023/04/03 05:08:51;;;;;;;6.97;2.70;;;;;;;-2.30;100.00;102965.94;5093731;28;20035;-89
2023/04/03 05:11:17;;;;;;;5.37;3.00;;;;;;;-2.36;100.00;102966.41;5093676;28;20023;-91
2023/04/03 05:13:42;;;;;;;4.43;2.37;;;;;;;-2.36;100.00;102976.94;5093848;28;20024;-89
2023/04/03 05:16:07;;;;;;;5.67;2.60;;;;;;;-2.41;100.00;102970.38;5079710;28;20506;-88
2023/04/03 05:18:33;;;;;;;5.50;2.50;;;;;;;-2.39;100.00;102977.19;5086299;28;20028;-89
2023/04/03 05:20:58;;;;;;;7.28;2.67;;;;;;;-2.37;100.00;102977.88;5096798;28;20024;-89
2023/04/03 05:23:24;;;;;;;5.57;2.60;;;;;;;-2.36;100.00;102973.47;5105637;28;20012;-88
2023/04/03 05:25:49;;;;;;;7.70;2.53;;;;;;;-2.29;100.00;102978.13;5116284;28;20040;-89
2023/04/03 05:28:15;;;;;;;5.18;2.17;;;;;;;-2.23;100.00;102968.13;5116483;28;20004;-89
2023/04/03 05:30:41;;;;;;;8.30;2.60;;;;;;;-2.17;100.00;102965.00;5095345;28;20032;-89
2023/04/03 05:33:06;;;;;;;7.13;2.50;;;;;;;-2.13;100.00;102974.31;5080308;28;20427;-90
2023/04/03 05:35:32;;;;;;;7.93;2.17;;;;;;;-2.04;100.00;102985.88;5079415;28;20024;-89
2023/04/03 05:37:57;;;;;;;7.83;2.43;;;;;;;-2.04;100.00;102976.22;5062939;28;20032;-89
2023/04/03 05:40:22;;;;;;;3.47;1.88;;;;;;;-2.01;100.00;102983.84;5078938;28;20052;-89
2023/04/03 05:42:48;;;;;;;4.17;2.20;;;;;;;-1.94;100.00;102986.00;5074484;28;20083;-87
2023/04/03 05:45:13;;;;;;;6.40;2.20;;;;;;;-1.96;100.00;102978.25;5074617;28;20679;-87
2023/04/03 05:47:38;;;;;;;5.17;2.40;;;;;;;-1.87;100.00;102981.94;5074506;28;20024;-87
2023/04/03 05:50:05;;;;;;;3.73;2.40;;;;;;;-1.78;100.00;102994.34;5091368;28;20028;-88
2023/04/03 05:57:41;;;;;;;5.13;2.28;;;;;;;-1.57;100.00;102986.53;5160746;22;20071;-90
2023/04/03 06:00:09;;;;;;;4.93;1.27;;;;;;;-1.54;100.00;102982.81;5081523;28;20032;-90
2023/04/03 06:02:36;;;;;;;10.20;2.22;;;;;;;-1.51;100.00;102979.94;5072569;28;20070;-90
2023/04/03 06:05:02;;;;;;;5.90;1.83;;;;;;;-1.36;100.00;102998.88;5071154;28;20055;-90
2023/04/03 06:07:28;;;;;;;4.30;1.97;;;;;;;-1.36;100.00;102988.34;5072337;28;20441;-89
2023/04/03 06:09:56;;;;;;;3.28;2.08;;;;;;;-1.29;100.00;103002.69;5072375;28;20020;-90
2023/04/03 06:12:23;;;;;;;6.15;2.28;;;;;;;-1.31;100.00;102988.84;5138847;22;20043;-90
2023/04/03 06:14:48;;;;;;;8.18;2.70;;;;;;;-1.14;100.00;102997.13;5072175;28;20021;-89
2023/04/03 06:17:15;;;;;;;4.30;2.20;;;;;;;-1.18;100.00;102983.41;5072585;28;20032;-89
2023/04/03 06:19:41;;;;;;;6.50;2.10;;;;;;;-1.08;100.00;102994.81;5071460;28;20522;-90
2023/04/03 06:24:41;;;;;;;8.27;2.03;;;;;;;-0.89;100.00;103013.53;5485419;22;20040;-90
2023/04/03 06:27:07;;;;;;;8.10;2.17;;;;;;;-0.89;100.00;103017.00;5119485;22;20039;-89
2023/04/03 06:29:35;;;;;;;7.50;1.73;;;;;;;-0.82;100.00;103014.72;5112184;28;20091;-90
2023/04/03 06:54:24;;;;;;;3.47;1.80;;;;;;;-0.32;100.00;103037.72;5484351;22;20060;-89
2023/04/03 06:56:50;;;;;;;4.75;1.90;;;;;;;-0.47;100.00;103008.28;5071401;28;20044;-89
2023/04/03 06:59:28;;;;;;;4.22;1.90;;;;;;;-0.54;100.00;102981.59;5054322;28;20123;-90
2023/04/03 07:02:04;;;;;;;6.97;1.90;;;;;;;-0.27;100.00;103021.53;5079057;22;20037;-90
2023/04/03 07:04:39;;;;;;;6.40;1.80;;;;;;;-0.13;100.00;103030.88;5071618;28;20021;-90
2023/04/03 07:07:23;;;;;;;7.00;1.60;;;;;;;-0.11;100.00;103018.41;5071779;28;20062;-90
2023/04/03 07:09:57;;;;;;;1.83;1.07;;;;;;;-0.02;100.00;103020.25;5071143;28;20025;-90
2023/04/03 07:12:23;;;;;;;5.20;1.70;;;;;;;0.11;100.00;103028.78;5318411;22;20789;-90
2023/04/03 07:14:48;;;;;;;3.65;1.50;;;;;;;0.14;100.00;103030.28;5048272;28;20056;-90
2023/04/03 07:17:17;;;;;;;3.70;1.73;;;;;;;0.16;100.00;103012.53;5033698;28;20021;-90
2023/04/03 07:19:42;;;;;;;7.45;1.60;;;;;;;0.41;100.00;103050.78;5057228;28;20084;-90
2023/04/03 07:22:20;;;;;;;4.77;2.00;;;;;;;0.34;100.00;103022.44;5036668;28;20118;-89
2023/04/03 07:25:20;;;;;;;4.10;1.75;;;;;;;0.63;100.00;103063.91;5031728;28;20036;-90
2023/04/03 07:28:17;;;;;;;3.40;1.58;;;;;;;0.68;100.00;103067.78;5042276;28;20029;-90
2023/04/03 07:36:24;;;;;;;6.93;1.53;;;;;;;0.72;100.00;103037.53;5127234;22;20052;-90
2023/04/03 08:00:12;;;;;;;2.28;1.30;;;;;;;1.54;100.00;103073.34;5489515;22;20076;-87
2023/04/03 08:02:37;;;;;;;3.55;1.08;;;;;;;1.64;100.00;103082.88;5035581;28;20069;-87
2023/04/03 08:05:02;;;;;;;4.77;1.13;;;;;;;1.66;100.00;103090.69;5016147;28;20014;-88
2023/04/03 08:07:29;;;;;;;4.23;1.30;;;;;;;1.73;100.00;103093.59;5019711;28;20031;-88
2023/04/03 08:09:55;;;;;;;9.55;2.28;;;;;;;1.77;100.00;103084.41;5019341;28;20017;-88
2023/04/03 08:12:20;;;;;;;6.20;1.37;;;;;;;1.79;100.00;103080.63;5411357;22;20037;-88
2023/04/03 08:14:45;;;;;;;8.80;1.67;;;;;;;1.88;100.00;103086.88;5077328;28;20048;-88
2023/04/03 08:17:11;;;;;;;5.03;1.63;;;;;;;1.91;100.00;103076.00;5067617;28;20028;-89
2023/04/03 08:19:46;;;;;;;7.23;1.63;;;;;;;1.91;100.00;103068.09;5066583;28;20033;-89
2023/04/03 08:22:11;;;;;;;4.28;1.40;;;;;;;2.07;100.00;103083.34;5265487;22;20033;-89
2023/04/03 08:24:37;;;;;;;5.73;1.20;;;;;;;2.13;100.00;103081.94;5074277;28;20372;-89
2023/04/03 08:27:02;;;;;;;5.33;1.20;;;;;;;2.20;100.00;103088.28;5073754;28;20319;-88
2023/04/03 08:34:39;;;;;;;3.80;1.23;;;;;;;2.26;100.00;103057.78;5052812;28;20053;-89
2023/04/03 08:37:05;;;;;;;3.05;1.42;;;;;;;2.36;100.00;103070.97;5055126;28;20292;-88
2023/04/03 08:39:45;;;;;;;5.17;1.40;;;;;;;2.53;100.00;103085.19;5055198;28;20047;-88
2023/04/03 08:48:49;;;;;;;1.65;0.73;;;;;;;2.82;93.89;103089.50;5027661;28;20032;-89
2023/04/03 08:51:42;;;;;;;2.17;0.85;;;;;;;2.72;92.23;103073.69;5013917;28;20027;-89
2023/04/03 08:58:16;;;;;;;3.97;1.10;;;;;;;3.12;90.10;103096.22;5001895;28;20076;-89
2023/04/03 09:06:32;;;;;;;1.58;0.65;;;;;;;3.44;78.48;103102.78;5227286;22;20049;-89
2023/04/03 09:09:43;;;;;;;2.95;0.60;;;;;;;3.43;80.39;103076.44;5013251;28;20030;-88
2023/04/03 09:12:26;;;;;;;2.40;0.65;;;;;;;3.59;76.87;103096.94;5014308;28;20105;-88
2023/04/03 09:19:09;;;;;;;1.30;0.50;;;;;;;3.65;76.76;103098.97;5014328;28;20394;-89
2023/04/03 09:21:42;;;;;;;3.03;0.53;;;;;;;3.62;68.14;103086.84;5481322;22;20693;-88
2023/04/03 09:53:02;;;;;;;2.25;0.70;;;;;;;4.70;60.27;103090.81;5034104;28;20036;-87
2023/04/03 09:55:45;;;;;;;2.53;0.70;;;;;;;4.64;61.42;103064.88;5026184;28;20041;-87
2023/04/03 09:58:37;;;;;;;2.85;0.80;;;;;;;4.87;60.12;103085.53;5016102;28;20532;-87
2023/04/03 10:01:05;;;;;;;1.20;0.55;;;;;;;4.90;57.02;103069.25;5034227;28;20036;-88
2023/04/03 10:03:35;;;;;;;2.37;0.63;;;;;;;4.99;56.33;103070.09;5028694;28;20026;-87
2023/04/03 10:06:01;;;;;;;0.87;0.40;;;;;;;5.06;55.81;103072.94;5015913;28;20296;-86
2023/04/03 10:08:30;;;;;;;1.73;0.55;;;;;;;5.13;55.51;103065.94;5031557;28;20117;-86
2023/04/03 10:11:16;;;;;;;1.77;0.40;;;;;;;5.16;57.08;103052.31;5029129;28;20120;-86
2023/04/03 10:13:56;;;;;;;1.67;0.50;;;;;;;5.27;53.80;103064.44;5014304;28;20026;-87
2023/04/03 10:16:40;;;;;;;0.50;0.30;;;;;;;5.18;53.96;103054.81;5021926;28;20022;-86
2023/04/03 10:19:24;;;;;;;1.60;0.40;;;;;;;5.19;53.21;103070.59;5013877;28;20034;-86
2023/04/03 10:22:01;;;;;;;1.90;0.43;;;;;;;5.19;54.89;103059.16;5020034;28;20056;-88
2023/04/03 10:25:00;;;;;;;2.37;0.50;;;;;;;5.37;53.97;103074.91;5024208;28;20380;-86
2023/04/03 10:27:47;;;;;;;1.58;0.35;;;;;;;5.50;53.75;103063.75;5033758;28;20029;-86
2023/04/03 10:30:15;;;;;;;0.65;0.40;;;;;;;5.57;52.83;103064.72;5009436;28;20397;-86
2023/04/03 10:32:54;;;;;;;1.48;0.63;;;;;;;5.72;51.66;103062.22;5032372;28;20021;-87
2023/04/03 10:35:50;;;;;;;1.67;0.50;;;;;;;5.68;53.06;103050.25;5031456;28;20044;-86
2023/04/03 10:38:30;;;;;;;0.63;0.40;;;;;;;5.85;51.07;103040.41;5000425;28;20126;-86
2023/04/03 10:41:10;;;;;;;1.87;0.33;;;;;;;5.74;51.68;103020.31;5021475;28;20111;-86
2023/04/03 10:43:38;;;;;;;1.45;0.38;;;;;;;5.95;50.75;103035.69;5011572;28;20063;-87
2023/04/03 10:46:13;;;;;;;1.40;0.40;;;;;;;6.03;50.74;103027.72;5011475;28;20030;-87
2023/04/03 10:49:12;;;;;;;1.20;0.40;;;;;;;6.13;49.60;103027.50;5010789;28;20049;-87
2023/04/03 10:51:38;;;;;;;1.52;0.40;;;;;;;6.20;47.70;103028.47;5011282;28;20481;-87
2023/04/03 10:54:27;;;;;;;1.97;0.83;;;;;;;6.21;49.81;103027.44;5011568;28;20116;-85
2023/04/03 10:57:02;;;;;;;1.38;0.40;;;;;;;6.34;48.23;103028.75;5014287;28;20033;-85
2023/04/03 10:59:46;;;;;;;1.20;0.60;;;;;;;6.36;48.24;103022.22;5027564;28;20556;-86
2023/04/03 11:02:43;;;;;;;0.57;0.40;;;;;;;6.39;47.21;103005.06;5068957;23;20049;-84
2023/04/03 11:08:45;;;;;;;3.97;0.43;;;;;;;6.54;48.67;102977.69;5044063;28;20021;-83
2023/04/03 11:11:18;;;;;;;1.42;0.32;;;;;;;6.84;45.44;103001.75;5040061;28;20038;-85
2023/04/03 11:14:40;;;;;;;;;;;;;;;;;;;;;
2023/04/03 11:17:27;;;;;;;0.65;0.40;;;;;;;6.95;46.88;102993.31;5029868;28;20041;-84
2023/04/03 11:20:15;;;;;;;1.40;0.40;;;;;;;7.13;45.99;103004.47;5030415;28;20477;-84
2023/04/03 11:22:48;;;;;;;1.07;0.40;;;;;;;7.12;46.29;103012.69;5031181;28;20106;-84
2023/04/03 11:25:24;;;;;;;1.87;0.43;;;;;;;7.20;44.10;102995.75;5045929;28;20816;-85
2023/04/03 11:27:59;;;;;;;2.22;0.68;;;;;;;7.21;41.97;102982.25;5034726;28;20112;-86
2023/04/03 11:30:48;;;;;;;1.35;0.52;;;;;;;7.22;40.94;102957.22;5155603;22;20046;-87
2023/04/03 11:37:13;;;;;;;1.02;0.40;;;;;;;7.47;43.64;102974.84;5053531;28;20099;-87
2023/04/03 11:39:47;;;;;;;0.80;0.40;;;;;;;7.56;42.95;102979.03;5058696;28;20090;-88
2023/04/03 11:42:16;;;;;;;0.40;0.30;;;;;;;7.68;42.09;102972.22;5042740;28;20021;-87
2023/04/03 11:44:42;;;;;;;1.08;0.30;;;;;;;7.70;43.97;102956.03;5034554;28;20040;-87
2023/04/03 11:47:11;;;;;;;1.48;0.32;;;;;;;7.93;39.39;102979.94;5038444;28;20456;-87
2023/04/03 11:49:59;;;;;;;0.70;0.32;;;;;;;7.93;41.79;102979.94;5037692;28;20048;-87
2023/04/03 11:52:40;;;;;;;1.08;0.40;;;;;;;8.07;41.40;102988.94;5031814;28;20044;-87
2023/04/03 11:55:23;;;;;;;0.90;0.50;;;;;;;8.08;40.85;102981.75;5035303;28;20029;-88
2023/04/03 11:57:58;;;;;;;2.73;0.50;;;;;;;8.16;42.17;102979.78;5035072;28;20319;-87
2023/04/03 12:03:26;;;;;;;2.72;0.57;;;;;;;8.36;40.00;102971.16;5080106;22;20068;-88
2023/04/03 12:09:00;;;;;;;1.60;0.40;;;;;;;8.13;39.58;102915.25;5015458;28;20080;-87
2023/04/03 12:11:40;;;;;;;1.87;0.50;;;;;;;8.44;39.25;102970.19;5013111;28;20025;-84
2023/04/03 12:14:37;;;;;;;1.98;0.73;;;;;;;8.51;40.69;102960.44;5011948;28;20053;-83
2023/04/03 12:17:33;;;;;;;1.75;0.60;;;;;;;8.29;41.74;102906.97;5030023;28;20044;-86
2023/04/03 12:20:35;;;;;;;1.23;0.50;;;;;;;8.73;39.68;102957.75;5033201;28;20397;-84
2023/04/03 12:23:24;;;;;;;2.03;0.50;;;;;;;8.70;40.57;102956.28;5032344;28;20056;-84
2023/04/03 12:25:51;;;;;;;1.97;0.50;;;;;;;8.72;41.42;102950.75;5033234;28;20072;-83
2023/04/03 12:28:17;;;;;;;2.23;0.50;;;;;;;8.79;39.52;102951.63;5032966;28;20290;-83
2023/04/03 12:30:44;;;;;;;5.78;0.70;;;;;;;8.89;38.02;102946.78;5031741;28;20030;-86
2023/04/03 12:33:26;;;;;;;3.40;0.65;;;;;;;8.85;40.02;102950.84;5033895;28;20025;-85
2023/04/03 12:36:18;;;;;;;1.88;0.60;;;;;;;8.94;38.76;102957.72;5033502;28;20032;-82
2023/04/03 12:39:05;;;;;;;3.40;0.75;;;;;;;9.03;41.33;102952.22;5026272;28;20056;-87
2023/04/03 12:44:20;;;;;;;0.93;0.60;;;;;;;9.08;39.29;102939.09;5011817;28;20046;-85
2023/04/03 12:47:18;;;;;;;1.15;0.50;;;;;;;9.05;40.52;102926.91;5050363;22;20087;-85
2023/04/03 12:50:26;;;;;;;2.90;0.55;;;;;;;9.11;39.26;102928.00;5034826;28;20771;-85
2023/04/03 12:53:42;;;;;;;1.52;0.50;;;;;;;9.12;37.54;102928.81;5026044;28;20055;-87
2023/04/03 12:56:42;;;;;;;2.05;0.47;;;;;;;9.04;38.55;102919.09;5016242;28;20649;-87
2023/04/03 12:59:21;;;;;;;2.43;0.80;;;;;;;9.04;40.39;102921.78;5018970;28;20477;-85
2023/04/03 13:02:00;;;;;;;2.43;0.80;;;;;;;9.15;39.58;102926.56;5025005;28;20787;-85
2023/04/03 13:04:31;;;;;;;2.05;0.50;;;;;;;9.26;40.13;102909.16;5036086;28;20027;-84
2023/04/03 13:06:57;;;;;;;1.05;0.65;;;;;;;9.30;39.14;102917.63;5034584;28;20034;-84
2023/04/03 13:09:25;;;;;;;4.22;0.77;;;;;;;9.24;38.29;102914.72;5031715;28;20469;-85
2023/04/03 13:11:58;;;;;;;3.03;0.60;;;;;;;9.35;38.67;102913.31;5016868;28;20124;-85
2023/04/03 13:14:26;;;;;;;1.52;0.70;;;;;;;9.34;38.35;102909.00;5034553;28;20105;-83
2023/04/03 13:16:54;;;;;;;2.77;0.60;;;;;;;9.37;40.07;102910.44;5029769;28;20148;-84
2023/04/03 13:19:21;;;;;;;0.90;0.53;;;;;;;9.53;40.98;102917.31;5031553;28;20751;-85
2023/04/03 13:21:59;;;;;;;6.57;0.73;;;;;;;9.59;41.52;102908.47;5031287;28;20120;-83
2023/04/03 13:24:29;;;;;;;1.08;0.65;;;;;;;9.61;38.49;102908.28;5032041;28;20425;-85
2023/04/03 13:26:55;;;;;;;4.85;0.80;;;;;;;9.49;38.92;102908.03;5032207;28;20108;-84
2023/04/03 13:31:56;;;;;;;2.83;0.90;;;;;;;9.24;39.64;102852.34;5159221;22;20062;-85
2023/04/03 13:34:26;;;;;;;0.97;0.60;;;;;;;9.56;40.48;102903.53;4990444;28;20037;-85
2023/04/03 13:36:53;;;;;;;3.53;0.67;;;;;;;9.63;40.54;102899.00;4981849;28;21069;-83
2023/04/03 13:39:18;;;;;;;1.92;0.85;;;;;;;9.60;38.88;102896.72;4996570;28;20053;-84
2023/04/03 13:41:58;;;;;;;1.67;0.73;;;;;;;9.65;39.45;102893.47;4980521;28;20070;-85
2023/04/03 13:44:23;;;;;;;1.90;0.73;;;;;;;9.74;41.82;102889.59;4992587;28;20457;-84
2023/04/03 13:46:57;;;;;;;3.20;0.90;;;;;;;9.84;40.86;102892.72;4992083;28;20053;-83
2023/04/03 13:49:36;;;;;;;4.35;0.80;;;;;;;9.87;41.79;102891.47;4980404;28;20023;-84
2023/04/03 13:52:29;;;;;;;4.20;0.93;;;;;;;9.91;41.73;102881.19;4972602;28;20056;-83